Time;durP1;ratioP1;P1;durP2;ratioP2;P2;SDS_P1;SDS_P2;PMS_P1;PMS_P2;Temp;Humidity;BMP_temperature;BMP_pressure;BME280_temperature;BME280_humidity;BME280_pressure;Samples;Min_cycle;Max_cycle;Signal;HPM_P1;HPM_P2
2023/04/16 00:02:11;;;;;;;0.88;0.88;;;;;;;9.01;78.56;101436.44;6376467;23;20037;-83
2023/04/16 00:04:45;;;;;;;0.30;0.30;;;;;;;9.11;77.86;101432.81;6380695;23;20084;-83
2023/04/16 00:07:16;;;;;;;0.43;0.43;;;;;;;8.80;80.31;101431.34;6351744;23;20297;-83
2023/04/16 00:09:46;;;;;;;0.90;0.90;;;;;;;8.87;79.85;101433.94;6375642;23;20454;-84
2023/04/16 00:12:17;;;;;;;0.47;0.47;;;;;;;9.06;78.44;101434.63;6373061;23;20013;-84
2023/04/16 00:14:48;;;;;;;0.45;0.45;;;;;;;9.11;77.38;101430.19;6360714;23;20073;-84
2023/04/16 00:17:18;;;;;;;0.75;0.75;;;;;;;9.18;77.36;101426.63;6372866;23;20009;-84
2023/04/16 00:19:49;;;;;;;2.30;1.30;;;;;;;9.07;78.38;101431.13;6395576;23;20045;-84
2023/04/16 00:22:19;;;;;;;0.77;0.77;;;;;;;8.97;79.48;101432.94;6373159;23;20009;-83
2023/04/16 00:24:50;;;;;;;0.85;0.85;;;;;;;9.21;77.02;101434.47;6374804;23;20080;-83
2023/04/16 00:27:20;;;;;;;0.20;0.20;;;;;;;8.94;79.62;101428.59;6373772;23;20403;-84
2023/04/16 00:29:51;;;;;;;0.20;0.20;;;;;;;9.08;77.87;101425.00;6374221;23;20024;-84
2023/04/16 00:32:21;;;;;;;0.40;0.40;;;;;;;9.06;79.26;101421.53;6372043;23;20373;-82
2023/04/16 00:34:52;;;;;;;0.57;0.30;;;;;;;9.20;77.93;101432.72;6378817;23;20080;-84
2023/04/16 00:37:22;;;;;;;0.38;0.38;;;;;;;8.96;79.14;101424.22;6380533;23;20029;-84
2023/04/16 00:39:53;;;;;;;0.73;0.60;;;;;;;9.09;78.08;101429.38;6390375;23;19997;-84
2023/04/16 00:42:23;;;;;;;1.85;1.75;;;;;;;8.75;80.97;101433.13;6367166;23;19997;-85
2023/04/16 00:44:54;;;;;;;0.52;0.52;;;;;;;8.58;82.47;101430.66;6391517;23;20073;-85
2023/04/16 00:47:26;;;;;;;0.40;0.40;;;;;;;8.97;79.53;101430.31;6426082;23;20089;-84
2023/04/16 00:49:57;;;;;;;0.30;0.30;;;;;;;8.76;81.29;101432.25;6376281;23;20024;-84
2023/04/16 00:52:28;;;;;;;1.83;0.75;;;;;;;8.98;79.53;101426.84;6375642;23;20008;-85
2023/04/16 00:54:59;;;;;;;0.50;0.50;;;;;;;8.56;82.22;101435.03;6375474;23;20463;-83
2023/04/16 00:57:30;;;;;;;0.50;0.50;;;;;;;8.67;82.51;101434.94;6377216;23;20105;-84
2023/04/16 01:00:01;;;;;;;0.60;0.60;;;;;;;8.60;82.81;101426.25;6374272;23;20009;-84
2023/04/16 01:02:33;;;;;;;0.60;0.60;;;;;;;8.46;83.47;101433.31;6384998;23;20013;-83
2023/04/16 01:05:04;;;;;;;0.52;0.52;;;;;;;8.66;81.89;101438.44;6399353;23;20124;-84
2023/04/16 01:07:35;;;;;;;2.55;2.00;;;;;;;8.76;80.43;101437.50;6397318;23;20063;-84
2023/04/16 01:10:06;;;;;;;1.00;1.00;;;;;;;8.66;82.26;101435.81;6374686;23;20016;-84
2023/04/16 01:12:36;;;;;;;1.52;1.23;;;;;;;8.87;79.92;101444.41;6407286;23;20013;-83
2023/04/16 01:15:07;;;;;;;1.27;1.17;;;;;;;8.69;81.90;101441.03;6396158;23;20012;-83
2023/04/16 01:17:38;;;;;;;0.45;0.45;;;;;;;8.43;83.88;101444.69;6372531;23;20020;-83
2023/04/16 01:20:08;;;;;;;2.40;1.75;;;;;;;8.65;82.93;101439.31;6373076;23;20390;-83
2023/04/16 01:22:39;;;;;;;0.63;0.63;;;;;;;8.67;81.99;101445.41;6407948;23;20043;-84
2023/04/16 01:25:13;;;;;;;1.40;1.30;;;;;;;8.63;82.51;101448.94;6372157;23;20017;-85
2023/04/16 01:27:44;;;;;;;6.13;0.70;;;;;;;8.53;83.98;101449.88;6410022;23;20011;-83
2023/04/16 01:30:14;;;;;;;0.50;0.50;;;;;;;8.68;81.90;101447.16;6371129;23;20438;-84
2023/04/16 01:32:45;;;;;;;0.25;0.25;;;;;;;8.62;82.68;101449.81;6371654;23;20005;-83
2023/04/16 01:35:17;;;;;;;0.30;0.30;;;;;;;8.48;83.53;101442.91;6371726;23;20505;-83
2023/04/16 01:37:49;;;;;;;0.20;0.20;;;;;;;8.34;85.04;101450.84;6381287;23;20009;-83
2023/04/16 01:40:19;;;;;;;1.38;1.27;;;;;;;8.62;82.63;101441.97;6370033;23;20005;-83
2023/04/16 01:42:50;;;;;;;0.50;0.50;;;;;;;8.64;82.33;101448.03;6371134;23;20036;-84
2023/04/16 01:45:21;;;;;;;0.68;0.68;;;;;;;8.53;83.30;101445.50;6395991;23;20119;-84
2023/04/16 01:47:52;;;;;;;1.48;1.40;;;;;;;8.68;81.90;101452.38;6372324;23;20012;-83
2023/04/16 01:50:22;;;;;;;1.08;1.08;;;;;;;8.70;81.88;101447.13;6369133;23;20024;-84
2023/04/16 01:52:53;;;;;;;1.40;1.33;;;;;;;8.71;81.60;101441.03;6375481;23;20084;-82
2023/04/16 01:55:23;;;;;;;0.95;0.95;;;;;;;8.77;81.55;101444.47;6374382;23;20087;-83
2023/04/16 01:57:54;;;;;;;1.40;1.27;;;;;;;8.64;82.19;101443.69;6375940;23;20477;-83
2023/04/16 02:00:24;;;;;;;0.65;0.65;;;;;;;8.80;80.65;101444.44;6395111;23;20060;-84
2023/04/16 02:02:55;;;;;;;0.50;0.50;;;;;;;8.61;82.75;101448.09;6372378;23;20005;-82
2023/04/16 02:05:25;;;;;;;0.50;0.50;;;;;;;8.73;82.17;101453.19;6370645;23;20013;-82
2023/04/16 02:07:56;;;;;;;0.30;0.30;;;;;;;8.60;83.09;101452.44;6372309;23;20515;-82
2023/04/16 02:10:26;;;;;;;2.20;1.67;;;;;;;8.70;81.85;101452.38;6370571;23;20013;-84
2023/04/16 02:12:57;;;;;;;1.75;1.65;;;;;;;8.77;81.62;101441.84;6372712;23;20017;-83
2023/04/16 02:15:28;;;;;;;0.60;0.60;;;;;;;8.66;82.48;101443.66;6344067;23;20020;-83
2023/04/16 02:17:58;;;;;;;1.50;1.40;;;;;;;8.57;83.31;101438.50;6365993;23;20638;-83
2023/04/16 02:20:29;;;;;;;0.38;0.38;;;;;;;8.60;83.66;101441.97;6364695;23;20020;-82
2023/04/16 02:23:00;;;;;;;0.50;0.50;;;;;;;8.62;83.51;101445.44;6382109;23;20017;-86
2023/04/16 02:25:30;;;;;;;0.40;0.40;;;;;;;8.57;84.08;101446.34;6343714;23;20024;-87
2023/04/16 02:28:01;;;;;;;1.25;1.23;;;;;;;8.57;83.76;101446.34;6367807;23;20286;-85
2023/04/16 02:30:33;;;;;;;1.88;1.77;;;;;;;8.72;81.64;101453.22;6367009;23;20123;-85
2023/04/16 02:33:06;;;;;;;0.73;0.73;;;;;;;8.72;82.53;101455.84;6377106;23;20000;-84
2023/04/16 02:35:38;;;;;;;0.40;0.40;;;;;;;8.93;80.10;101454.81;6385954;23;20017;-84
2023/04/16 02:38:09;;;;;;;2.17;0.93;;;;;;;8.99;80.35;101452.13;6365166;23;20009;-84
2023/04/16 02:40:39;;;;;;;1.17;1.10;;;;;;;8.79;82.49;101452.28;6366276;23;20019;-85
2023/04/16 02:43:10;;;;;;;1.17;1.15;;;;;;;8.82;81.52;101453.13;6376239;23;20063;-85
2023/04/16 02:45:40;;;;;;;1.55;1.45;;;;;;;8.73;82.92;101453.19;6362383;23;20537;-85
2023/04/16 02:48:11;;;;;;;0.57;0.57;;;;;;;8.52;85.11;101449.00;6364955;23;20004;-84
2023/04/16 02:50:41;;;;;;;0.63;0.63;;;;;;;8.74;83.17;101454.09;6387794;23;20504;-84
2023/04/16 02:53:12;;;;;;;1.42;1.33;;;;;;;8.72;83.35;101454.06;6362230;23;20040;-86
2023/04/16 02:55:51;;;;;;;2.80;1.50;;;;;;;8.82;82.11;101453.13;6387222;23;20500;-84
2023/04/16 02:58:23;;;;;;;1.40;1.30;;;;;;;8.77;82.51;101457.56;6362871;23;20009;-85
2023/04/16 03:00:54;;;;;;;0.30;0.30;;;;;;;8.73;82.72;101453.19;6389171;23;20020;-85
2023/04/16 03:03:24;;;;;;;1.20;1.15;;;;;;;8.56;84.72;101447.22;6338969;23;20013;-84
2023/04/16 03:05:55;;;;;;;3.75;1.98;;;;;;;8.39;85.63;101448.16;6368030;23;20398;-84
2023/04/16 03:08:26;;;;;;;0.75;0.75;;;;;;;8.49;84.69;101449.88;6367240;23;20242;-84
2023/04/16 03:10:56;;;;;;;0.63;0.63;;;;;;;8.39;86.61;101456.03;6387355;23;20104;-84
2023/04/16 03:13:27;;;;;;;1.60;1.50;;;;;;;8.37;87.16;101454.28;6387649;23;20040;-85
2023/04/16 03:15:57;;;;;;;1.00;1.00;;;;;;;8.54;85.23;101459.47;6391761;23;20013;-85
2023/04/16 03:18:28;;;;;;;1.58;1.48;;;;;;;8.59;84.59;101461.19;6364735;23;20036;-85
2023/04/16 03:20:59;;;;;;;0.35;0.35;;;;;;;8.65;84.08;101460.25;6308832;23;20353;-83
2023/04/16 03:23:29;;;;;;;0.70;0.68;;;;;;;8.33;87.26;101459.56;6340051;23;20019;-84
2023/04/16 03:26:00;;;;;;;0.30;0.30;;;;;;;8.49;85.15;101460.34;6366440;23;20048;-84
2023/04/16 03:28:31;;;;;;;0.88;0.88;;;;;;;8.71;83.66;101469.81;6326563;23;20458;-85
2023/04/16 03:31:01;;;;;;;0.63;0.63;;;;;;;8.67;84.82;101458.50;6346156;23;20025;-85
2023/04/16 03:33:32;;;;;;;0.50;0.50;;;;;;;8.40;87.49;101464.75;6361720;23;20084;-85
2023/04/16 03:36:02;;;;;;;0.85;0.85;;;;;;;8.55;86.23;101459.44;6363078;23;20023;-83
2023/04/16 03:38:33;;;;;;;0.75;0.75;;;;;;;8.50;86.58;101462.09;6364672;23;20062;-86
2023/04/16 03:41:03;;;;;;;1.80;1.70;;;;;;;8.55;86.17;101461.22;6363747;23;20461;-85
2023/04/16 03:43:34;;;;;;;0.52;0.52;;;;;;;8.69;83.85;101469.81;6361877;23;20005;-84
2023/04/16 03:46:04;;;;;;;0.40;0.40;;;;;;;8.73;84.93;101468.03;6363514;23;20013;-83
2023/04/16 03:48:35;;;;;;;0.50;0.50;;;;;;;8.25;89.31;101468.31;6371248;23;20159;-84
2023/04/16 03:51:06;;;;;;;1.55;1.45;;;;;;;8.49;87.19;101460.34;6363241;23;20095;-85
2023/04/16 03:53:36;;;;;;;0.73;0.73;;;;;;;8.69;84.31;101469.81;6386801;23;20043;-84
2023/04/16 03:56:07;;;;;;;0.73;0.73;;;;;;;8.42;88.61;101466.47;6394096;23;20012;-84
2023/04/16 03:58:40;;;;;;;1.40;1.40;;;;;;;8.55;87.41;101469.06;6393290;23;20020;-83
2023/04/16 04:01:10;;;;;;;0.95;0.95;;;;;;;8.39;88.47;101471.72;6416915;23;20020;-85
2023/04/16 04:03:41;;;;;;;0.70;0.70;;;;;;;8.54;86.76;101472.53;6373457;23;20027;-85
2023/04/16 04:06:11;;;;;;;1.40;1.30;;;;;;;8.50;87.78;101479.53;6366951;23;20012;-84
2023/04/16 04:08:42;;;;;;;1.30;1.00;;;;;;;8.44;88.86;101477.81;6367383;23;20386;-83
2023/04/16 04:11:12;;;;;;;1.30;1.20;;;;;;;8.47;87.94;101477.78;6366614;23;20079;-85
2023/04/16 04:13:43;;;;;;;1.73;1.63;;;;;;;8.59;87.67;101478.59;6391851;23;20027;-83
2023/04/16 04:16:13;;;;;;;1.58;1.48;;;;;;;8.78;84.43;101480.22;6390528;23;20013;-85
2023/04/16 04:18:44;;;;;;;0.40;0.40;;;;;;;8.77;84.05;101483.72;6364448;23;20013;-85
2023/04/16 04:21:14;;;;;;;0.52;0.52;;;;;;;8.68;86.11;101482.94;6365384;23;20016;-84
2023/04/16 04:23:45;;;;;;;1.45;1.20;;;;;;;8.76;85.83;101481.13;6388635;23;20016;-84
2023/04/16 04:26:15;;;;;;;1.02;1.02;;;;;;;8.76;86.16;101478.50;6392189;23;20468;-84
2023/04/16 04:28:46;;;;;;;0.80;0.80;;;;;;;8.65;86.56;101481.16;6379617;23;20242;-84
2023/04/16 04:31:17;;;;;;;0.65;0.65;;;;;;;8.70;86.61;101482.03;6365629;23;20021;-84
2023/04/16 04:33:47;;;;;;;0.73;0.73;;;;;;;8.51;88.24;101478.66;6397153;23;20017;-84
2023/04/16 04:36:18;;;;;;;0.65;0.65;;;;;;;8.48;88.65;101482.16;6365532;23;20021;-84
2023/04/16 04:38:48;;;;;;;0.82;0.82;;;;;;;8.41;88.80;101482.19;6365161;23;20453;-84
2023/04/16 04:41:20;;;;;;;0.50;0.50;;;;;;;8.37;90.04;101486.56;6365046;23;20244;-86
2023/04/16 04:43:50;;;;;;;2.25;2.10;;;;;;;8.49;88.64;101489.13;6365096;23;20268;-84
2023/04/16 04:46:21;;;;;;;1.83;1.73;;;;;;;8.59;87.83;101486.44;6390569;23;20013;-84
2023/04/16 04:48:51;;;;;;;0.75;0.75;;;;;;;8.71;85.64;101490.72;6365356;23;20363;-85
2023/04/16 04:51:22;;;;;;;5.50;1.67;;;;;;;8.52;88.51;101503.06;6389007;23;20021;-85
2023/04/16 04:53:52;;;;;;;2.00;1.83;;;;;;;8.63;86.93;101496.88;6364602;23;20487;-85
2023/04/16 04:56:23;;;;;;;0.43;0.43;;;;;;;8.59;87.67;101496.91;6389461;23;20043;-84
2023/04/16 04:58:53;;;;;;;1.48;1.42;;;;;;;8.76;85.88;101510.75;6364552;23;20021;-85
2023/04/16 05:01:24;;;;;;;1.75;1.65;;;;;;;8.68;86.97;101501.25;6415334;23;20005;-85
2023/04/16 05:03:55;;;;;;;1.25;1.15;;;;;;;8.84;85.05;101507.22;6399967;23;20017;-85
2023/04/16 05:06:26;;;;;;;0.63;0.63;;;;;;;8.76;86.55;101499.44;6364521;23;20456;-85
2023/04/16 05:08:56;;;;;;;2.40;1.23;;;;;;;8.80;86.34;101506.38;6365617;23;20476;-84
2023/04/16 05:11:27;;;;;;;6.60;3.10;;;;;;;8.89;85.07;101511.53;6363536;23;20294;-83
2023/04/16 05:13:57;;;;;;;3.83;2.05;;;;;;;8.94;83.79;101516.75;6398064;23;20009;-84
2023/04/16 05:16:27;;;;;;;0.55;0.55;;;;;;;8.85;85.44;101516.81;6417798;23;20032;-84
2023/04/16 05:18:58;;;;;;;14.80;2.40;;;;;;;8.66;88.16;101514.31;6390415;23;20017;-85
2023/04/16 05:21:29;;;;;;;1.58;1.48;;;;;;;8.79;86.65;101521.22;6386203;23;20779;-85
2023/04/16 05:24:00;;;;;;;1.35;1.25;;;;;;;8.84;86.22;101517.69;6396307;23;20051;-83
2023/04/16 05:26:30;;;;;;;0.70;0.70;;;;;;;8.52;89.74;101516.16;6392196;23;20009;-83
2023/04/16 05:29:01;;;;;;;5.40;2.25;;;;;;;8.81;86.38;101516.81;6367425;23;20405;-85
2023/04/16 05:31:31;;;;;;;2.08;1.13;;;;;;;8.94;85.42;101520.22;6363170;23;20024;-83
2023/04/16 05:34:02;;;;;;;1.63;1.35;;;;;;;8.79;87.10;101526.44;6363569;23;20013;-83
2023/04/16 05:36:32;;;;;;;0.98;0.98;;;;;;;8.68;88.25;101522.16;6361739;23;20303;-84
2023/04/16 05:39:03;;;;;;;1.58;1.50;;;;;;;8.70;87.83;101529.13;6395659;23;20722;-83
2023/04/16 05:41:34;;;;;;;3.03;1.25;;;;;;;8.82;85.87;101534.25;6337513;23;20013;-84
2023/04/16 05:44:05;;;;;;;1.55;1.05;;;;;;;8.90;86.04;101541.19;6389882;23;20016;-84
2023/04/16 05:46:35;;;;;;;1.42;1.33;;;;;;;8.91;85.32;101540.31;6366905;23;20016;-84
2023/04/16 05:49:12;;;;;;;2.10;1.30;;;;;;;8.95;85.20;101548.13;6344010;23;20473;-84
2023/04/16 05:51:43;;;;;;;0.75;0.75;;;;;;;9.01;83.55;101552.47;6377583;23;20013;-83
2023/04/16 05:54:13;;;;;;;2.20;1.88;;;;;;;9.06;83.72;101544.56;6389986;23;20112;-84
2023/04/16 05:56:44;;;;;;;1.63;1.42;;;;;;;9.00;85.29;101548.09;6413618;23;20542;-84
2023/04/16 05:59:14;;;;;;;0.90;0.90;;;;;;;8.94;85.47;101556.00;6390138;23;20021;-84
2023/04/16 06:01:48;;;;;;;0.75;0.75;;;;;;;8.79;87.20;101559.56;6373006;23;20001;-84
2023/04/16 06:04:19;;;;;;;1.10;0.98;;;;;;;8.74;87.81;101554.38;6336857;23;20100;-85
2023/04/16 06:06:51;;;;;;;0.50;0.50;;;;;;;8.89;86.44;101561.28;6368064;23;20341;-84
2023/04/16 06:09:22;;;;;;;1.00;1.00;;;;;;;9.03;85.27;101563.78;6342275;23;20021;-87
2023/04/16 06:11:52;;;;;;;0.93;0.93;;;;;;;9.08;83.96;101564.63;6375289;23;20528;-87
2023/04/16 06:14:23;;;;;;;1.33;1.23;;;;;;;9.17;82.63;101560.19;6363818;23;20497;-86
2023/04/16 06:16:53;;;;;;;3.85;1.63;;;;;;;8.86;86.62;101563.03;6366090;23;20008;-85
2023/04/16 06:19:24;;;;;;;2.85;2.58;;;;;;;8.81;87.71;101563.91;6363735;23;20017;-85
2023/04/16 06:21:54;;;;;;;1.50;1.35;;;;;;;8.56;89.27;101564.94;6364245;23;20040;-85
2023/04/16 06:24:25;;;;;;;2.17;1.75;;;;;;;8.72;89.19;101563.97;6362806;23;20024;-87
2023/04/16 06:26:56;;;;;;;2.10;1.73;;;;;;;8.93;85.87;101565.59;6365766;23;20228;-86
2023/04/16 06:29:26;;;;;;;1.92;1.40;;;;;;;8.93;86.56;101577.81;6363267;23;20028;-85
2023/04/16 06:31:57;;;;;;;1.23;1.17;;;;;;;8.77;88.32;101563.94;6365729;23;20005;-87
2023/04/16 06:34:28;;;;;;;1.63;1.52;;;;;;;8.90;87.70;101573.47;6362572;23;20023;-84
2023/04/16 06:37:01;;;;;;;1.33;1.23;;;;;;;9.03;85.08;101571.66;6366769;23;20005;-86
2023/04/16 06:39:35;;;;;;;1.25;1.15;;;;;;;9.12;84.33;101582.06;6365637;23;20098;-84
2023/04/16 06:42:21;;;;;;;;;;;;;;;;;;;;;
2023/04/16 06:45:25;;;;;;;1.63;1.52;;;;;;;8.79;88.53;101584.03;6384153;23;20020;-85
2023/04/16 06:47:57;;;;;;;0.80;0.68;;;;;;;8.70;90.10;101586.69;6344182;23;20507;-84
2023/04/16 06:50:28;;;;;;;0.85;0.85;;;;;;;9.01;86.78;101589.09;6358788;23;20346;-86
2023/04/16 06:52:58;;;;;;;2.35;2.15;;;;;;;8.82;88.92;101589.22;6384915;23;20005;-85
2023/04/16 06:55:29;;;;;;;1.70;1.60;;;;;;;9.05;85.56;101590.81;6360196;23;20024;-85
2023/04/16 06:57:59;;;;;;;1.33;1.27;;;;;;;9.21;84.48;101591.59;6385206;23;20288;-87
2023/04/16 07:00:30;;;;;;;2.83;1.63;;;;;;;9.06;86.83;101595.16;6362312;23;20010;-85
2023/04/16 07:03:00;;;;;;;0.70;0.70;;;;;;;9.09;85.84;101595.16;6362808;23;20009;-85
2023/04/16 07:05:31;;;;;;;1.73;1.63;;;;;;;9.14;86.16;101601.22;6362395;23;20035;-85
2023/04/16 07:08:01;;;;;;;0.60;0.60;;;;;;;9.10;86.14;101594.28;6364059;23;20088;-85
2023/04/16 07:10:32;;;;;;;1.13;1.00;;;;;;;8.88;88.81;101598.78;6386970;23;20017;-85
2023/04/16 07:13:02;;;;;;;1.67;1.58;;;;;;;9.10;86.29;101603.88;6428396;23;20028;-86
2023/04/16 07:15:33;;;;;;;1.15;1.15;;;;;;;9.09;87.52;101602.16;6367338;23;20091;-85
2023/04/16 07:18:03;;;;;;;1.50;1.40;;;;;;;9.18;85.97;101601.22;6402746;23;20072;-88
2023/04/16 07:20:35;;;;;;;0.73;0.73;;;;;;;9.08;87.97;101608.28;6363764;23;20017;-84
2023/04/16 07:23:05;;;;;;;1.08;1.02;;;;;;;9.19;86.99;101609.03;6363044;23;20013;-85
2023/04/16 07:25:35;;;;;;;0.60;0.60;;;;;;;9.16;86.67;101605.59;6364769;23;20027;-85
2023/04/16 07:28:06;;;;;;;1.20;1.15;;;;;;;9.12;87.83;101607.34;6367333;23;20015;-87
2023/04/16 07:30:37;;;;;;;0.98;0.93;;;;;;;9.17;86.42;101608.22;6387537;23;20020;-86
2023/04/16 07:33:08;;;;;;;2.03;0.95;;;;;;;9.14;87.74;101608.22;6389777;23;20009;-84
2023/04/16 07:35:38;;;;;;;4.32;2.25;;;;;;;9.23;86.12;101609.91;6401707;23;20024;-84
2023/04/16 07:38:08;;;;;;;11.00;2.30;;;;;;;9.17;87.92;101615.19;6387682;23;20008;-87
2023/04/16 07:40:39;;;;;;;2.20;2.08;;;;;;;9.08;88.82;101614.38;6387485;23;20013;-87
2023/04/16 07:43:10;;;;;;;0.98;0.98;;;;;;;9.23;86.63;101612.50;6383565;23;20009;-87
2023/04/16 07:45:41;;;;;;;1.67;1.58;;;;;;;9.15;88.49;101620.44;6387775;23;20020;-88
2023/04/16 07:48:11;;;;;;;0.93;0.93;;;;;;;9.23;87.32;101620.38;6395065;23;20001;-87
2023/04/16 07:50:45;;;;;;;0.73;0.73;;;;;;;9.31;86.64;101621.19;6390713;23;20005;-88
2023/04/16 07:53:15;;;;;;;;;;;;;;;9.25;87.61;101614.25;6392481;23;20009;-87
2023/04/16 07:55:45;;;;;;;1.92;1.80;;;;;;;9.29;86.64;101626.44;6382907;23;19912;-87
2023/04/16 07:58:16;;;;;;;0.95;0.95;;;;;;;9.22;88.95;101631.72;6382844;23;20021;-87
2023/04/16 08:00:46;;;;;;;2.45;2.00;;;;;;;9.27;87.32;101627.34;6391111;23;20032;-88
2023/04/16 08:03:17;;;;;;;0.88;0.88;;;;;;;9.25;88.11;101635.22;6391695;23;20009;-87
2023/04/16 08:05:47;;;;;;;2.50;2.35;;;;;;;9.40;85.62;101634.22;6393964;23;20069;-88
2023/04/16 08:08:18;;;;;;;0.85;0.85;;;;;;;9.43;85.68;101633.31;6393859;23;20013;-88
2023/04/16 08:10:48;;;;;;;3.22;1.85;;;;;;;9.36;86.87;101635.13;6391893;23;20016;-88
2023/04/16 08:13:19;;;;;;;3.75;2.72;;;;;;;9.36;86.81;101642.09;6369565;23;20097;-84
2023/04/16 08:15:49;;;;;;;1.17;1.13;;;;;;;9.39;86.77;101642.94;6366036;23;20032;-86
2023/04/16 08:18:20;;;;;;;6.70;3.42;;;;;;;9.32;87.07;101641.25;6364785;23;20532;-85
2023/04/16 08:20:50;;;;;;;2.38;2.28;;;;;;;9.39;86.32;101642.94;6363821;23;20060;-84
2023/04/16 08:25:53;;;;;;;1.50;1.03;;;;;;;9.33;86.79;101652.63;6419633;22;20355;-86
2023/04/16 08:28:24;;;;;;;1.77;1.67;;;;;;;9.45;85.86;101652.50;6371745;23;20036;-85
2023/04/16 08:30:57;;;;;;;2.45;2.25;;;;;;;9.45;86.18;101663.00;6370693;23;20024;-86
2023/04/16 08:33:30;;;;;;;3.03;2.78;;;;;;;9.42;85.95;101658.66;6365211;23;20282;-85
2023/04/16 08:36:01;;;;;;;2.33;2.20;;;;;;;9.48;85.20;101659.47;6391180;23;20039;-86
2023/04/16 08:38:31;;;;;;;3.05;1.70;;;;;;;9.47;85.34;101662.97;6391163;23;20253;-86
2023/04/16 08:41:05;;;;;;;2.85;2.25;;;;;;;9.42;85.74;101668.28;6390916;23;20036;-86
2023/04/16 08:43:38;;;;;;;9.05;3.15;;;;;;;9.49;85.72;101669.97;6365996;23;20040;-86
2023/04/16 08:46:10;;;;;;;4.07;2.40;;;;;;;9.46;85.23;101675.22;6365036;23;20128;-86
2023/04/16 08:48:43;;;;;;;1.33;1.23;;;;;;;9.46;85.68;101675.22;6365453;23;20063;-86
2023/04/16 08:51:17;;;;;;;1.02;1.02;;;;;;;9.35;86.49;101683.16;6365912;23;20017;-86
2023/04/16 08:53:49;;;;;;;1.38;1.30;;;;;;;9.52;84.08;101679.53;6397547;23;20017;-88
2023/04/16 08:56:22;;;;;;;1.58;1.05;;;;;;;9.59;83.97;101683.84;6390276;23;20013;-87
2023/04/16 08:58:54;;;;;;;3.33;3.08;;;;;;;9.55;84.88;101684.75;6365957;23;20025;-86
2023/04/16 09:01:27;;;;;;;7.57;2.95;;;;;;;9.58;84.24;101684.72;6363531;23;20009;-85
2023/04/16 09:04:00;;;;;;;8.45;1.83;;;;;;;9.57;84.60;101688.22;6389596;23;20087;-86
2023/04/16 09:06:33;;;;;;;1.70;1.60;;;;;;;9.51;85.66;101683.03;6390912;23;20509;-85
2023/04/16 09:09:04;;;;;;;;;;;;;;;9.67;84.56;101689.91;6366643;23;20357;-86
2023/04/16 09:11:35;;;;;;;4.75;3.70;;;;;;;9.68;85.10;101686.41;6364852;23;19912;-86
2023/04/16 09:14:08;;;;;;;1.48;1.25;;;;;;;9.67;85.34;101687.28;6367559;23;20017;-85
2023/04/16 09:16:39;;;;;;;1.35;1.35;;;;;;;9.54;85.88;101693.50;6392046;23;20454;-85
2023/04/16 09:19:10;;;;;;;2.42;1.52;;;;;;;9.71;84.74;101689.00;6391078;23;20086;-85
2023/04/16 09:21:44;;;;;;;2.30;2.20;;;;;;;9.85;83.68;101682.78;6389844;23;20040;-86
2023/04/16 09:24:15;;;;;;;2.47;2.35;;;;;;;9.90;83.97;101687.09;6365772;23;20036;-87
2023/04/16 09:26:47;;;;;;;0.75;0.75;;;;;;;9.77;83.84;101695.94;6402182;23;20009;-86
2023/04/16 09:29:35;;;;;;;2.03;1.92;;;;;;;9.87;83.21;101696.75;6340535;23;20385;-86
2023/04/16 09:32:10;;;;;;;3.05;2.15;;;;;;;9.92;82.84;101697.56;6389624;23;20441;-85
2023/04/16 09:34:56;;;;;;;1.23;1.13;;;;;;;9.95;83.42;101700.19;6340703;23;20334;-85
2023/04/16 09:37:28;;;;;;;11.30;2.42;;;;;;;9.85;83.90;101703.75;6342363;23;20023;-87
2023/04/16 09:40:01;;;;;;;2.45;2.33;;;;;;;9.84;83.88;101702.00;6367447;23;20017;-87
2023/04/16 09:42:35;;;;;;;1.35;1.35;;;;;;;10.01;83.12;101707.09;6366354;23;20039;-84
2023/04/16 09:45:06;;;;;;;2.17;1.90;;;;;;;9.98;82.83;101705.38;6366954;23;20048;-87
2023/04/16 09:47:42;;;;;;;2.63;2.33;;;;;;;10.02;82.50;101708.84;6365878;23;20028;-86
2023/04/16 09:50:17;;;;;;;5.22;3.60;;;;;;;10.05;82.07;101714.91;6378678;23;20013;-86
2023/04/16 09:52:52;;;;;;;4.47;2.20;;;;;;;9.97;82.84;101713.25;6367320;23;20446;-87
2023/04/16 09:55:26;;;;;;;3.08;2.85;;;;;;;10.25;82.02;101716.50;6340353;23;20366;-86
2023/04/16 09:58:00;;;;;;;1.83;1.67;;;;;;;10.33;81.50;101711.19;6325918;23;20441;-86
2023/04/16 10:00:31;;;;;;;2.53;2.33;;;;;;;10.38;81.61;101705.00;6363163;23;20388;-85
2023/04/16 10:03:05;;;;;;;4.13;3.53;;;;;;;10.44;80.53;101703.22;6390698;23;20009;-83
2023/04/16 10:05:36;;;;;;;1.23;1.17;;;;;;;10.54;80.73;101710.09;6365569;23;20043;-86
2023/04/16 10:08:11;;;;;;;1.23;1.08;;;;;;;10.62;81.00;101710.88;6395314;23;20005;-85
2023/04/16 10:10:50;;;;;;;1.60;1.50;;;;;;;10.66;80.30;101712.59;6344488;23;20017;-84
2023/04/16 10:13:21;;;;;;;1.88;1.77;;;;;;;10.60;79.05;101710.03;6341014;23;20368;-85
2023/04/16 10:15:52;;;;;;;3.30;2.70;;;;;;;10.76;78.63;101709.88;6390820;23;20017;-84
2023/04/16 10:18:23;;;;;;;8.43;2.58;;;;;;;10.85;77.93;101712.38;6341288;23;20464;-86
2023/04/16 10:20:54;;;;;;;1.55;1.45;;;;;;;10.94;78.27;101709.66;6365732;23;20013;-86
2023/04/16 10:23:25;;;;;;;20.33;3.20;;;;;;;11.00;77.57;101709.56;6369504;23;20009;-84
2023/04/16 10:25:57;;;;;;;5.05;1.85;;;;;;;11.02;76.55;101712.16;6367332;23;20021;-87
2023/04/16 10:28:29;;;;;;;1.73;1.42;;;;;;;11.05;76.39;101713.88;6366826;23;20041;-85
2023/04/16 10:31:02;;;;;;;10.02;2.83;;;;;;;11.21;76.29;101712.78;6366417;23;20083;-85
2023/04/16 10:33:35;;;;;;;;;;;;;;;11.22;75.81;101711.03;6342143;23;20353;-86
2023/04/16 10:36:12;;;;;;;2.08;1.65;;;;;;;11.28;75.26;101714.41;6398317;23;20012;-86
2023/04/16 10:38:49;;;;;;;1.88;1.75;;;;;;;11.28;75.34;101709.16;6377703;23;20385;-86
2023/04/16 10:41:19;;;;;;;2.13;2.00;;;;;;;11.36;75.52;101705.59;6372424;23;20017;-86
2023/04/16 10:43:50;;;;;;;0.93;0.93;;;;;;;11.46;75.03;101709.78;6374976;23;20024;-84
2023/04/16 10:46:31;;;;;;;5.05;1.95;;;;;;;11.49;75.63;101705.34;6394940;23;20013;-86
2023/04/16 10:49:12;;;;;;;3.25;2.65;;;;;;;11.52;74.08;101717.59;6365956;23;20093;-86
2023/04/16 10:51:52;;;;;;;3.40;3.10;;;;;;;11.57;73.81;101707.88;6413649;23;20119;-84
2023/04/16 10:54:28;;;;;;;1.85;1.75;;;;;;;11.61;73.67;101709.56;6339880;23;20738;-87
2023/04/16 10:57:03;;;;;;;1.50;1.40;;;;;;;11.72;73.92;101713.78;6365190;23;20772;-85
2023/04/16 10:59:38;;;;;;;3.28;2.97;;;;;;;11.81;72.97;101704.00;6339283;23;20036;-85
2023/04/16 11:02:14;;;;;;;2.75;2.30;;;;;;;11.89;71.95;101705.63;6384425;23;20089;-84
2023/04/16 11:04:48;;;;;;;2.50;2.30;;;;;;;11.96;72.04;101697.59;6336580;23;20025;-87
2023/04/16 11:07:20;;;;;;;1.90;1.65;;;;;;;11.98;71.98;101696.72;6336235;23;20419;-83
2023/04/16 11:10:02;;;;;;;2.40;2.20;;;;;;;12.07;72.28;101700.06;6387831;23;19994;-83
2023/04/16 11:12:41;;;;;;;1.98;1.88;;;;;;;12.12;70.98;101698.25;6370555;23;20103;-84
2023/04/16 11:15:15;;;;;;;1.50;1.35;;;;;;;12.19;71.88;101695.50;6361307;23;19998;-85
2023/04/16 11:17:47;;;;;;;1.45;1.35;;;;;;;12.30;71.76;101692.66;6372912;23;20024;-83
2023/04/16 11:20:21;;;;;;;3.58;2.08;;;;;;;12.37;70.59;101697.78;6360552;23;20013;-83
2023/04/16 11:22:53;;;;;;;1.92;1.45;;;;;;;12.49;71.19;101696.69;6361073;23;20017;-85
2023/04/16 11:25:25;;;;;;;1.27;1.27;;;;;;;12.50;69.77;101701.06;6334283;23;20022;-86
2023/04/16 11:27:57;;;;;;;2.00;1.60;;;;;;;12.57;69.80;101700.03;6371789;23;20009;-83
2023/04/16 11:30:34;;;;;;;4.57;2.50;;;;;;;12.54;68.41;101704.50;6305394;23;20009;-84
2023/04/16 11:33:08;;;;;;;3.53;3.17;;;;;;;12.44;68.03;101701.16;6365606;23;20017;-84
2023/04/16 11:35:40;;;;;;;1.38;1.27;;;;;;;12.52;69.04;101701.88;6335162;23;20018;-81
2023/04/16 11:38:10;;;;;;;6.75;2.58;;;;;;;12.62;68.70;101712.22;6360688;23;20021;-84
2023/04/16 11:40:41;;;;;;;1.52;1.45;;;;;;;12.57;67.97;101707.94;6382276;23;19998;-82
2023/04/16 11:43:16;;;;;;;5.40;3.13;;;;;;;12.58;68.61;101707.03;6349454;23;20009;-84
2023/04/16 11:45:56;;;;;;;3.08;1.85;;;;;;;12.62;68.76;101696.41;6333409;23;20096;-85
2023/04/16 11:48:54;;;;;;;2.00;1.85;;;;;;;12.64;68.53;101705.16;6334122;23;20017;-85
2023/04/16 11:51:26;;;;;;;1.35;1.25;;;;;;;12.67;68.71;101711.25;6326902;23;20710;-83
2023/04/16 11:53:57;;;;;;;1.77;1.67;;;;;;;12.64;67.71;101705.16;6337321;23;20017;-85
2023/04/16 11:56:33;;;;;;;5.13;2.53;;;;;;;12.69;68.38;101703.28;6332278;23;20018;-84
2023/04/16 11:59:22;;;;;;;1.63;1.52;;;;;;;12.81;68.33;101705.69;6363127;23;20041;-86